createdAt,value
2023-11-12T00:00:40.793Z,59.74
2023-11-12T00:03:07.841Z,59.82
2023-11-12T00:05:35.339Z,59.66
2023-11-12T00:08:02.552Z,59.88
2023-11-12T00:10:29.571Z,59.91
2023-11-12T00:12:56.569Z,60.09
2023-11-12T00:15:23.505Z,60.02
2023-11-12T00:17:50.547Z,60.17
2023-11-12T00:20:18.973Z,59.78
2023-11-12T00:22:46.208Z,59.74
2023-11-12T00:25:14.822Z,59.99
2023-11-12T00:27:42.075Z,60.07
2023-11-12T00:30:10.443Z,60.41
2023-11-12T00:32:38.251Z,60.13
2023-11-12T00:35:06.621Z,59.97
2023-11-12T00:37:34.156Z,60.06
2023-11-12T00:40:01.319Z,60.22
2023-11-12T00:42:28.573Z,60.61
2023-11-12T00:44:55.617Z,60.58
2023-11-12T00:47:22.697Z,60.50
2023-11-12T00:49:49.826Z,60.57
2023-11-12T00:52:17.634Z,60.70
2023-11-12T00:54:45.356Z,60.74
2023-11-12T00:57:12.367Z,60.53
2023-11-12T00:59:39.304Z,60.77
2023-11-12T01:02:06.490Z,60.83
2023-11-12T01:04:33.531Z,60.67
2023-11-12T01:07:00.452Z,60.74
2023-11-12T01:09:29.471Z,61.05
2023-11-12T01:11:56.447Z,60.80
2023-11-12T01:14:23.935Z,61.01
2023-11-12T01:16:51.050Z,60.67
2023-11-12T01:19:18.044Z,60.58
2023-11-12T01:21:44.997Z,60.70
2023-11-12T01:24:12.043Z,60.78
2023-11-12T01:26:39.652Z,60.28
2023-11-12T01:29:06.678Z,60.13
2023-11-12T01:31:33.643Z,60.45
2023-11-12T01:34:01.349Z,60.50
2023-11-12T01:36:28.455Z,60.35
2023-11-12T01:38:55.459Z,60.30
2023-11-12T01:41:23.125Z,60.63
2023-11-12T01:43:50.076Z,60.48
2023-11-12T01:46:19.992Z,60.61
2023-11-12T01:48:47.852Z,60.54
2023-11-12T01:51:15.201Z,60.71
2023-11-12T01:53:42.663Z,61.16
2023-11-12T01:56:13.025Z,61.22
2023-11-12T01:58:41.958Z,61.16
2023-11-12T02:01:09.343Z,60.95
2023-11-12T02:03:38.068Z,61.18
2023-11-12T02:06:06.551Z,61.41
2023-11-12T02:08:36.272Z,61.21
2023-11-12T02:11:08.946Z,61.53
2023-11-12T02:13:38.409Z,61.30
2023-11-12T02:16:05.857Z,61.38
2023-11-12T02:18:32.854Z,61.30
2023-11-12T02:21:00.564Z,61.32
2023-11-12T02:23:28.168Z,61.27
2023-11-12T02:25:55.117Z,61.29
2023-11-12T02:28:22.161Z,61.35
2023-11-12T02:30:49.281Z,61.29
2023-11-12T02:33:16.514Z,61.14
2023-11-12T02:35:46.915Z,61.00
2023-11-12T02:38:13.965Z,61.17
2023-11-12T02:40:40.936Z,60.99
2023-11-12T02:43:08.009Z,61.35
2023-11-12T02:45:35.008Z,61.14
2023-11-12T02:48:03.088Z,60.98
2023-11-12T02:50:34.310Z,60.96
2023-11-12T02:53:04.518Z,61.12
2023-11-12T02:55:32.682Z,61.12
2023-11-12T02:58:01.484Z,60.85
2023-11-12T03:00:29.529Z,61.05
2023-11-12T03:03:02.410Z,60.71
2023-11-12T03:05:32.702Z,60.92
2023-11-12T03:07:59.875Z,60.88
2023-11-12T03:10:26.982Z,61.02
2023-11-12T03:12:55.121Z,60.90
2023-11-12T03:15:22.462Z,60.62
2023-11-12T03:17:52.148Z,60.76
2023-11-12T03:20:19.292Z,60.64
2023-11-12T03:22:47.068Z,60.67
2023-11-12T03:25:14.039Z,60.93
2023-11-12T03:27:41.168Z,60.79
2023-11-12T03:30:10.562Z,60.40
2023-11-12T03:32:37.894Z,60.48
2023-11-12T03:35:06.078Z,60.32
2023-11-12T03:37:33.516Z,60.58
2023-11-12T03:40:00.588Z,60.75
2023-11-12T03:42:28.094Z,60.82
2023-11-12T03:44:56.945Z,60.58
2023-11-12T03:47:25.515Z,60.53
2023-11-12T03:49:52.493Z,60.44
2023-11-12T03:52:19.434Z,60.67
2023-11-12T03:54:46.536Z,60.54
2023-11-12T03:57:14.550Z,60.16
2023-11-12T03:59:41.661Z,60.56
2023-11-12T04:02:08.673Z,60.40
2023-11-12T04:04:36.267Z,60.30
2023-11-12T04:07:03.962Z,60.25
2023-11-12T04:09:31.757Z,60.26
2023-11-12T04:11:58.740Z,60.37
2023-11-12T04:14:25.699Z,60.39
2023-11-12T04:16:52.653Z,60.69
2023-11-12T04:19:19.583Z,60.78
2023-11-12T04:21:48.346Z,60.49
2023-11-12T04:24:16.550Z,60.51
2023-11-12T04:26:44.081Z,60.46
2023-11-12T04:29:11.722Z,60.36
2023-11-12T04:31:40.292Z,60.31
2023-11-12T04:34:08.254Z,60.35
2023-11-12T04:36:37.825Z,60.52
2023-11-12T04:39:05.659Z,60.38
2023-11-12T04:41:32.808Z,60.49
2023-11-12T04:44:00.418Z,60.49
2023-11-12T04:46:28.920Z,60.28
2023-11-12T04:48:56.200Z,60.44
2023-11-12T04:51:23.486Z,60.23
2023-11-12T04:53:50.493Z,60.33
2023-11-12T04:56:17.441Z,60.49
2023-11-12T04:58:44.415Z,60.45
2023-11-12T05:01:11.342Z,60.45
2023-11-12T05:03:38.352Z,60.59
2023-11-12T05:06:05.659Z,60.56
2023-11-12T05:08:32.835Z,60.42
2023-11-12T05:10:59.990Z,60.50
2023-11-12T05:13:27.230Z,60.45
2023-11-12T05:15:54.445Z,60.78
2023-11-12T05:18:22.556Z,60.58
2023-11-12T05:20:49.664Z,60.39
2023-11-12T05:23:16.652Z,60.55
2023-11-12T05:25:43.586Z,60.41
2023-11-12T05:28:10.526Z,60.31
2023-11-12T05:30:37.699Z,60.50
2023-11-12T05:33:04.688Z,60.19
2023-11-12T05:35:31.892Z,60.45
2023-11-12T05:37:58.806Z,60.22
2023-11-12T05:40:25.795Z,60.22
2023-11-12T05:42:52.770Z,60.25
2023-11-12T05:45:20.313Z,60.30
2023-11-12T05:47:47.495Z,60.33
2023-11-12T05:50:15.795Z,59.97
2023-11-12T05:52:43.540Z,60.21
2023-11-12T05:55:11.853Z,60.18
2023-11-12T05:57:38.839Z,60.31
2023-11-12T06:00:10.383Z,60.47
2023-11-12T06:02:40.617Z,60.41
2023-11-12T06:05:08.183Z,60.49
2023-11-12T06:07:35.193Z,60.62
2023-11-12T06:10:02.657Z,60.54
2023-11-12T06:12:29.681Z,60.41
2023-11-12T06:14:56.822Z,60.55
2023-11-12T06:17:25.906Z,60.40
2023-11-12T06:19:53.463Z,60.88
2023-11-12T06:22:21.276Z,60.81
2023-11-12T06:24:48.277Z,60.96
2023-11-12T06:27:15.244Z,60.89
2023-11-12T06:29:42.180Z,61.10
2023-11-12T06:32:09.130Z,60.89
2023-11-12T06:34:36.296Z,60.88
2023-11-12T06:37:04.295Z,60.92
2023-11-12T06:39:32.139Z,60.68
2023-11-12T06:41:59.293Z,60.81
2023-11-12T06:44:26.264Z,61.03
2023-11-12T06:46:53.255Z,60.93
2023-11-12T06:49:20.221Z,60.81
2023-11-12T06:51:47.218Z,60.87
2023-11-12T06:54:14.273Z,60.96
2023-11-12T06:56:41.289Z,60.94
2023-11-12T06:59:08.277Z,60.87
2023-11-12T07:01:35.294Z,60.69
2023-11-12T07:04:02.407Z,61.04
2023-11-12T07:06:30.100Z,60.89
2023-11-12T07:08:57.066Z,61.06
2023-11-12T07:11:23.974Z,61.16
2023-11-12T07:13:51.258Z,60.96
2023-11-12T07:16:19.265Z,60.77
2023-11-12T07:18:53.764Z,60.98
2023-11-12T07:21:29.846Z,60.84
2023-11-12T07:23:57.285Z,60.70
2023-11-12T07:26:25.767Z,60.59
2023-11-12T07:28:53.827Z,60.53
2023-11-12T07:31:24.187Z,60.34
2023-11-12T07:33:52.127Z,60.34
2023-11-12T07:36:19.843Z,60.43
2023-11-12T07:38:46.936Z,60.52
2023-11-12T07:41:13.865Z,60.36
2023-11-12T07:43:41.124Z,60.58
2023-11-12T07:46:08.316Z,60.31
2023-11-12T07:48:36.814Z,60.40
2023-11-12T07:51:03.964Z,60.00
2023-11-12T07:53:30.881Z,59.67
2023-11-12T07:55:57.898Z,59.59
2023-11-12T07:58:24.967Z,59.95
2023-11-12T08:00:52.200Z,59.83
2023-11-12T08:03:20.488Z,59.79
2023-11-12T08:05:48.343Z,59.95
2023-11-12T08:08:15.288Z,59.99
2023-11-12T08:10:42.255Z,59.82
2023-11-12T08:13:09.199Z,60.06
2023-11-12T08:15:36.405Z,59.99
2023-11-12T08:18:06.412Z,59.55
2023-11-12T08:20:35.604Z,59.78
2023-11-12T08:23:03.220Z,59.72
2023-11-12T08:25:30.188Z,59.49
2023-11-12T08:27:58.390Z,59.88
2023-11-12T08:30:25.669Z,60.03
2023-11-12T08:32:53.188Z,59.84
2023-11-12T08:35:20.149Z,59.95
2023-11-12T08:37:47.626Z,59.94
2023-11-12T08:40:16.608Z,59.47
2023-11-12T08:42:44.855Z,59.48
2023-11-12T08:45:11.840Z,59.75
2023-11-12T08:47:38.801Z,59.55
2023-11-12T08:50:06.278Z,59.97
2023-11-12T08:52:33.240Z,60.07
2023-11-12T08:55:00.425Z,60.12
2023-11-12T08:57:27.449Z,60.02
2023-11-12T08:59:54.793Z,59.96
2023-11-12T09:02:21.773Z,59.65
2023-11-12T09:04:48.729Z,59.26
2023-11-12T09:07:15.691Z,59.01
2023-11-12T09:09:42.672Z,58.93
2023-11-12T09:12:09.684Z,59.13
2023-11-12T09:14:36.903Z,58.94
2023-11-12T09:17:04.119Z,58.92
2023-11-12T09:19:31.112Z,59.09
2023-11-12T09:21:58.124Z,59.17
2023-11-12T09:24:25.252Z,59.32
2023-11-12T09:26:52.326Z,59.24
2023-11-12T09:29:19.926Z,59.53
2023-11-12T09:31:46.865Z,59.16
2023-11-12T09:34:14.602Z,59.81
2023-11-12T09:36:41.544Z,59.54
2023-11-12T09:39:08.530Z,59.67
2023-11-12T09:41:40.163Z,59.64
2023-11-12T09:44:08.944Z,59.01
2023-11-12T09:46:36.788Z,58.80
2023-11-12T09:49:05.341Z,58.39
2023-11-12T09:51:34.864Z,58.89
2023-11-12T09:54:02.208Z,58.50
2023-11-12T09:56:29.230Z,58.71
2023-11-12T09:58:56.183Z,58.41
2023-11-12T10:01:24.042Z,58.80
2023-11-12T10:03:52.440Z,58.32
2023-11-12T10:06:22.167Z,58.72
2023-11-12T10:08:51.319Z,58.49
2023-11-12T10:11:25.605Z,58.47
2023-11-12T10:13:53.124Z,58.55
2023-11-12T10:16:33.700Z,58.13
2023-11-12T10:19:16.250Z,58.28
2023-11-12T10:21:58.049Z,58.46
2023-11-12T10:24:30.718Z,58.67
2023-11-12T10:27:01.971Z,58.72
2023-11-12T10:29:28.902Z,58.08
2023-11-12T10:31:56.646Z,58.45
2023-11-12T10:34:25.873Z,58.04
2023-11-12T10:37:09.243Z,57.95
2023-11-12T10:39:42.656Z,58.10
2023-11-12T10:42:25.803Z,58.19
2023-11-12T10:44:57.291Z,58.37
2023-11-12T10:47:31.231Z,58.18
2023-11-12T10:49:59.094Z,57.80
2023-11-12T10:52:27.947Z,57.29
2023-11-12T10:54:59.399Z,56.99
2023-11-12T10:57:27.372Z,57.10
2023-11-12T10:59:56.007Z,57.04
2023-11-12T11:02:29.830Z,57.47
2023-11-12T11:04:58.151Z,57.16
2023-11-12T11:07:25.503Z,56.85
2023-11-12T11:09:52.895Z,55.72
2023-11-12T11:12:20.557Z,55.42
2023-11-12T11:14:47.840Z,55.58
2023-11-12T11:17:39.661Z,55.18
2023-11-12T11:20:07.428Z,55.51
2023-11-12T11:22:34.389Z,55.11
2023-11-12T11:25:23.407Z,55.06
2023-11-12T11:27:51.749Z,55.07
2023-11-12T11:30:18.874Z,54.92
2023-11-12T11:33:03.753Z,54.92
2023-11-12T11:35:32.826Z,55.32
2023-11-12T11:38:12.846Z,55.41
2023-11-12T11:40:43.651Z,55.48
2023-11-12T11:43:23.086Z,55.85
2023-11-12T11:46:09.714Z,55.83
2023-11-12T11:48:48.964Z,55.56
2023-11-12T11:51:36.243Z,55.30
2023-11-12T11:54:07.419Z,55.25
2023-11-12T11:56:35.277Z,55.24
2023-11-12T11:59:02.941Z,55.23
2023-11-12T12:01:29.920Z,55.04
2023-11-12T12:04:06.458Z,55.02
2023-11-12T12:06:34.545Z,54.38
2023-11-12T12:09:01.563Z,54.61
2023-11-12T12:11:28.589Z,54.26
2023-11-12T12:14:01.226Z,54.10
2023-11-12T12:16:30.334Z,53.55
2023-11-12T12:18:57.684Z,53.75
2023-11-12T12:21:25.711Z,53.76
2023-11-12T12:23:53.155Z,53.69
2023-11-12T12:26:25.440Z,53.70
2023-11-12T12:28:53.574Z,53.53
2023-11-12T12:31:21.107Z,53.45
2023-11-12T12:34:09.376Z,53.20
2023-11-12T12:36:37.510Z,53.24
2023-11-12T12:39:10.922Z,52.67
2023-11-12T12:41:41.027Z,53.10
2023-11-12T12:44:23.884Z,52.58
2023-11-12T12:46:55.421Z,52.58
2023-11-12T12:49:40.943Z,52.51
2023-11-12T12:52:24.631Z,51.75
2023-11-12T12:54:54.146Z,51.96
2023-11-12T12:57:25.121Z,51.68
2023-11-12T12:59:52.248Z,51.85
2023-11-12T13:02:19.257Z,51.34
2023-11-12T13:04:48.457Z,51.66
2023-11-12T13:07:16.353Z,51.91
2023-11-12T13:09:45.659Z,51.81
2023-11-12T13:12:13.691Z,51.80
2023-11-12T13:14:42.073Z,51.93
2023-11-12T13:17:09.649Z,52.06
2023-11-12T13:19:37.064Z,51.90
2023-11-12T13:22:04.747Z,51.91
2023-11-12T13:24:35.485Z,51.72
2023-11-12T13:27:03.930Z,52.11
2023-11-12T13:29:30.878Z,52.42
2023-11-12T13:31:57.971Z,52.21
2023-11-12T13:34:25.154Z,52.55
2023-11-12T13:36:52.548Z,52.59
2023-11-12T13:39:19.705Z,52.61
2023-11-12T13:41:48.147Z,52.56
2023-11-12T13:44:15.699Z,52.88
2023-11-12T13:46:42.770Z,52.93
2023-11-12T13:49:10.452Z,52.91
2023-11-12T13:51:40.851Z,53.20
2023-11-12T13:54:11.542Z,53.32
2023-11-12T13:56:40.178Z,53.24
2023-11-12T13:59:07.141Z,53.29
2023-11-12T14:01:34.226Z,53.44
2023-11-12T14:04:01.978Z,53.46
2023-11-12T14:06:29.107Z,53.53
2023-11-12T14:08:57.296Z,53.57
2023-11-12T14:11:24.259Z,53.58
2023-11-12T14:13:52.017Z,53.48
2023-11-12T14:16:19.150Z,53.71
2023-11-12T14:18:46.595Z,53.84
2023-11-12T14:21:13.829Z,53.88
2023-11-12T14:23:41.422Z,54.03
2023-11-12T14:26:09.672Z,54.46
2023-11-12T14:28:37.029Z,54.72
2023-11-12T14:31:08.347Z,55.13
2023-11-12T14:33:35.867Z,55.10
2023-11-12T14:36:03.063Z,55.53
2023-11-12T14:38:32.816Z,55.79
2023-11-12T14:40:59.752Z,56.16
2023-11-12T14:43:26.689Z,56.33
2023-11-12T14:45:53.763Z,56.41
2023-11-12T14:48:20.961Z,56.57
2023-11-12T14:50:49.952Z,56.67
2023-11-12T14:53:17.046Z,56.90
2023-11-12T14:55:43.974Z,57.05
2023-11-12T14:58:11.107Z,57.03
2023-11-12T15:00:41.059Z,57.05
2023-11-12T15:03:08.171Z,57.24
2023-11-12T15:05:35.714Z,57.39
2023-11-12T15:08:02.840Z,57.48
2023-11-12T15:10:30.301Z,57.46
2023-11-12T15:12:58.519Z,57.90
2023-11-12T15:15:25.782Z,58.20
2023-11-12T15:17:53.353Z,58.05
2023-11-12T15:20:21.274Z,58.29
2023-11-12T15:22:48.322Z,58.56
2023-11-12T15:25:16.275Z,58.63
2023-11-12T15:27:48.126Z,58.75
2023-11-12T15:30:18.106Z,58.90
2023-11-12T15:32:46.307Z,58.85
2023-11-12T15:35:15.092Z,58.97
2023-11-12T15:37:42.698Z,59.02
2023-11-12T15:40:20.991Z,59.03
2023-11-12T15:42:51.642Z,59.01
2023-11-12T15:45:19.326Z,59.41
2023-11-12T15:47:48.176Z,59.29
2023-11-12T15:50:16.669Z,59.50
2023-11-12T15:52:44.751Z,59.86
2023-11-12T15:55:16.992Z,59.64
2023-11-12T15:57:44.210Z,59.90
2023-11-12T16:00:15.938Z,59.83
2023-11-12T16:02:45.515Z,60.01
2023-11-12T16:05:13.815Z,59.91
2023-11-12T16:07:42.217Z,60.16
2023-11-12T16:10:11.965Z,60.46
2023-11-12T16:12:39.240Z,60.41
2023-11-12T16:15:12.101Z,61.02
2023-11-12T16:17:40.109Z,61.12
2023-11-12T16:20:09.701Z,61.48
2023-11-12T16:22:38.882Z,62.18
2023-11-12T16:25:09.478Z,62.76
2023-11-12T16:27:36.856Z,63.05
2023-11-12T16:30:04.855Z,63.08
2023-11-12T16:32:32.802Z,63.21
2023-11-12T16:35:00.506Z,63.41
2023-11-12T16:37:27.481Z,63.62
2023-11-12T16:39:54.509Z,64.07
2023-11-12T16:42:25.185Z,64.43
2023-11-12T16:44:52.519Z,63.73
2023-11-12T16:47:24.055Z,63.46
2023-11-12T16:49:51.974Z,65.03
2023-11-12T16:52:18.980Z,66.74
2023-11-12T16:54:46.582Z,66.68
2023-11-12T16:57:13.624Z,65.68
2023-11-12T16:59:41.391Z,64.60
2023-11-12T17:02:14.878Z,63.22
2023-11-12T17:04:42.347Z,62.73
2023-11-12T17:07:09.827Z,62.22
2023-11-12T17:09:36.866Z,61.88
2023-11-12T17:12:04.429Z,61.83
2023-11-12T17:14:31.782Z,61.58
2023-11-12T17:16:58.812Z,61.25
2023-11-12T17:19:25.774Z,61.24
2023-11-12T17:21:53.529Z,61.25
2023-11-12T17:24:22.607Z,61.43
2023-11-12T17:26:51.534Z,61.54
2023-11-12T17:29:19.210Z,61.28
2023-11-12T17:31:46.161Z,61.22
2023-11-12T17:34:14.942Z,61.38
2023-11-12T17:36:42.021Z,61.48
2023-11-12T17:39:10.830Z,61.50
2023-11-12T17:41:38.018Z,61.56
2023-11-12T17:44:05.459Z,61.92
2023-11-12T17:46:32.857Z,61.70
2023-11-12T17:49:01.935Z,61.47
2023-11-12T17:51:29.139Z,61.76
2023-11-12T17:53:56.076Z,61.65
2023-11-12T17:56:23.325Z,61.76
2023-11-12T17:58:51.086Z,61.83
2023-11-12T18:01:19.587Z,61.45
2023-11-12T18:03:49.843Z,61.88
2023-11-12T18:06:20.090Z,61.67
2023-11-12T18:08:47.071Z,61.51
2023-11-12T18:11:17.185Z,62.08
2023-11-12T18:13:45.382Z,62.12
2023-11-12T18:16:12.689Z,62.24
2023-11-12T18:18:40.809Z,62.14
2023-11-12T18:21:08.064Z,62.50
2023-11-12T18:23:35.572Z,62.52
2023-11-12T18:26:02.889Z,62.49
2023-11-12T18:28:30.000Z,62.24
2023-11-12T18:30:57.397Z,62.16
2023-11-12T18:33:24.345Z,62.18
2023-11-12T18:35:51.249Z,62.40
2023-11-12T18:38:19.178Z,62.54
2023-11-12T18:40:48.435Z,62.67
2023-11-12T18:43:16.796Z,63.06
2023-11-12T18:45:43.946Z,62.79
2023-11-12T18:48:11.642Z,63.17
2023-11-12T18:50:38.876Z,63.19
2023-11-12T18:53:06.027Z,63.30
2023-11-12T18:55:33.058Z,63.50
2023-11-12T18:58:00.466Z,63.27
2023-11-12T19:00:27.412Z,63.49
2023-11-12T19:02:54.826Z,63.03
2023-11-12T19:05:22.677Z,63.13
2023-11-12T19:07:49.872Z,63.22
2023-11-12T19:10:17.780Z,63.08
2023-11-12T19:12:45.544Z,63.29
2023-11-12T19:15:14.480Z,63.35
2023-11-12T19:17:44.494Z,63.16
2023-11-12T19:20:16.088Z,63.15
2023-11-12T19:22:44.063Z,63.28
2023-11-12T19:25:17.368Z,62.91
2023-11-12T19:27:45.088Z,63.00
2023-11-12T19:30:15.571Z,62.32
2023-11-12T19:32:44.200Z,62.80
2023-11-12T19:35:12.504Z,62.58
2023-11-12T19:37:39.761Z,62.53
2023-11-12T19:40:11.130Z,62.56
2023-11-12T19:42:40.022Z,62.85
2023-11-12T19:45:07.443Z,62.62
2023-11-12T19:47:34.606Z,62.56
2023-11-12T19:50:01.783Z,62.42
2023-11-12T19:52:29.585Z,62.50
2023-11-12T19:54:56.751Z,62.31
2023-11-12T19:57:24.127Z,62.56
2023-11-12T19:59:51.046Z,62.54
2023-11-12T20:02:18.188Z,62.19
2023-11-12T20:04:45.199Z,62.31
2023-11-12T20:07:12.600Z,62.26
2023-11-12T20:09:40.381Z,62.29
2023-11-12T20:12:07.814Z,62.34
2023-11-12T20:14:37.806Z,62.58
2023-11-12T20:17:05.038Z,62.65
2023-11-12T20:19:32.048Z,62.80
2023-11-12T20:21:59.139Z,62.70
2023-11-12T20:24:27.078Z,62.67
2023-11-12T20:26:55.430Z,62.50
2023-11-12T20:29:22.531Z,62.63
2023-11-12T20:31:55.463Z,62.42
2023-11-12T20:34:23.657Z,62.83
2023-11-12T20:36:51.926Z,63.12
2023-11-12T20:39:21.310Z,62.98
2023-11-12T20:41:50.978Z,63.21
2023-11-12T20:44:18.107Z,63.07
2023-11-12T20:46:46.178Z,62.97
2023-11-12T20:49:18.381Z,63.14
2023-11-12T20:51:52.401Z,62.78
2023-11-12T20:54:19.415Z,62.80
2023-11-12T20:56:46.494Z,62.49
2023-11-12T20:59:14.011Z,62.37
2023-11-12T21:01:41.347Z,62.28
2023-11-12T21:04:12.485Z,62.33
2023-11-12T21:06:41.850Z,62.23
2023-11-12T21:09:09.829Z,62.06
2023-11-12T21:11:41.179Z,62.18
2023-11-12T21:14:12.760Z,62.23
2023-11-12T21:16:41.269Z,62.51
2023-11-12T21:19:09.944Z,62.48
2023-11-12T21:21:38.941Z,62.48
2023-11-12T21:24:07.189Z,62.62
2023-11-12T21:26:34.901Z,62.45
2023-11-12T21:29:01.892Z,62.57
2023-11-12T21:31:28.872Z,62.50
2023-11-12T21:33:55.899Z,62.75
2023-11-12T21:36:23.219Z,62.80
2023-11-12T21:38:50.458Z,62.45
2023-11-12T21:41:18.797Z,62.78
2023-11-12T21:43:46.002Z,63.01
2023-11-12T21:46:16.410Z,62.66
2023-11-12T21:48:43.912Z,62.81
2023-11-12T21:51:10.993Z,62.91
2023-11-12T21:53:38.109Z,62.54
2023-11-12T21:56:05.809Z,62.82
2023-11-12T21:58:33.519Z,62.59
2023-11-12T22:01:01.243Z,62.64
2023-11-12T22:03:28.673Z,62.93
2023-11-12T22:05:56.123Z,62.51
2023-11-12T22:08:23.748Z,62.71
2023-11-12T22:10:51.129Z,62.79
2023-11-12T22:13:21.795Z,62.41
2023-11-12T22:15:49.172Z,62.29
2023-11-12T22:18:16.366Z,62.45
2023-11-12T22:20:43.343Z,62.76
2023-11-12T22:23:11.955Z,62.73
2023-11-12T22:25:39.822Z,62.85
2023-11-12T22:28:08.161Z,62.68
2023-11-12T22:30:36.935Z,62.63
2023-11-12T22:33:03.951Z,62.73
2023-11-12T22:35:30.927Z,62.60
2023-11-12T22:37:58.519Z,62.49
2023-11-12T22:40:25.774Z,62.64
2023-11-12T22:42:53.394Z,62.66
2023-11-12T22:45:20.605Z,62.53
2023-11-12T22:47:48.092Z,62.80
2023-11-12T22:50:18.229Z,62.60
2023-11-12T22:52:45.298Z,62.74
2023-11-12T22:55:12.698Z,62.67
2023-11-12T22:57:41.126Z,62.68
2023-11-12T23:02:57.153Z,62.61
2023-11-12T23:05:24.254Z,62.45
2023-11-12T23:07:51.206Z,62.28
2023-11-12T23:10:18.151Z,62.70
2023-11-12T23:12:45.083Z,62.61
2023-11-12T23:15:12.669Z,62.39
2023-11-12T23:17:40.196Z,62.39
2023-11-12T23:20:10.158Z,62.57
2023-11-12T23:22:37.439Z,62.67
2023-11-12T23:25:05.528Z,62.59
2023-11-12T23:27:33.246Z,62.71
2023-11-12T23:30:00.239Z,62.69
2023-11-12T23:32:27.402Z,62.74
2023-11-12T23:34:55.724Z,62.64
2023-11-12T23:37:22.815Z,62.71
2023-11-12T23:39:49.794Z,62.52
2023-11-12T23:42:18.162Z,62.85
2023-11-12T23:44:45.092Z,62.67
2023-11-12T23:47:12.061Z,63.15
2023-11-12T23:49:39.009Z,63.12
2023-11-12T23:52:06.633Z,62.96
2023-11-12T23:54:33.551Z,62.89
2023-11-12T23:57:00.938Z,62.66
2023-11-12T23:59:27.869Z,62.86
